Kitchings Mill, South Carolina
Current Conditions -  °F | °C
As of 4:35 PM on Friday 24 Oct 2014 (Local Time) from KAIK Reporting Station
Clear Clear  
Wind Chill: 72°   Ceiling: Unl
Heat Index: 72°   Visibility: 10mi
Dew Point: 46°   Wind: 6mph
Humidity: 41%   Direction: 360°N
Pressure: 30.01"   Gusts: NA
Location:  33.5901°N, 81.3327°W
Report Text: KAIK 242035Z AUTO 36005KT 10SM CLR 22/08 A3001 RMK AO2 PNO
Loading
Personal Weather Stations






























Interactive Weather Map New forecast layout! Learn more

10-Day Weather Forecast

Advertisements
Track Severe Weather on mobile